sensor_id;sensor_type;location;lat;lon;timestamp;P1;durP1;ratioP1;P2;durP2;ratioP2
16600;SDS011;34891;48.164;11.572;2022-12-05T00:02:52;15.35;;;5.95;;
16600;SDS011;34891;48.164;11.572;2022-12-05T00:08:00;18.63;;;6.43;;
16600;SDS011;34891;48.164;11.572;2022-12-05T00:18:08;22.58;;;6.50;;
16600;SDS011;34891;48.164;11.572;2022-12-05T00:23:11;16.60;;;6.55;;
16600;SDS011;34891;48.164;11.572;2022-12-05T00:28:14;20.10;;;6.88;;
16600;SDS011;34891;48.164;11.572;2022-12-05T00:33:19;15.82;;;5.32;;
16600;SDS011;34891;48.164;11.572;2022-12-05T00:38:21;16.10;;;5.60;;
16600;SDS011;34891;48.164;11.572;2022-12-05T00:43:24;12.05;;;5.20;;
16600;SDS011;34891;48.164;11.572;2022-12-05T00:48:29;19.13;;;6.47;;
16600;SDS011;34891;48.164;11.572;2022-12-05T00:53:32;15.73;;;5.55;;
16600;SDS011;34891;48.164;11.572;2022-12-05T00:58:36;21.75;;;6.68;;
16600;SDS011;34891;48.164;11.572;2022-12-05T01:03:42;12.05;;;4.47;;
16600;SDS011;34891;48.164;11.572;2022-12-05T01:08:46;17.20;;;5.85;;
16600;SDS011;34891;48.164;11.572;2022-12-05T01:13:49;17.80;;;6.25;;
16600;SDS011;34891;48.164;11.572;2022-12-05T01:18:54;19.10;;;7.17;;
16600;SDS011;34891;48.164;11.572;2022-12-05T01:23:57;19.88;;;6.88;;
16600;SDS011;34891;48.164;11.572;2022-12-05T01:29:04;19.83;;;7.32;;
16600;SDS011;34891;48.164;11.572;2022-12-05T01:34:12;19.10;;;5.53;;
16600;SDS011;34891;48.164;11.572;2022-12-05T01:39:15;21.98;;;7.43;;
16600;SDS011;34891;48.164;11.572;2022-12-05T01:49:42;17.65;;;6.22;;
16600;SDS011;34891;48.164;11.572;2022-12-05T01:54:45;20.10;;;7.38;;
16600;SDS011;34891;48.164;11.572;2022-12-05T02:00:00;20.60;;;6.40;;
16600;SDS011;34891;48.164;11.572;2022-12-05T02:05:06;17.58;;;5.95;;
16600;SDS011;34891;48.164;11.572;2022-12-05T02:10:11;21.83;;;6.90;;
16600;SDS011;34891;48.164;11.572;2022-12-05T02:15:17;20.98;;;8.25;;
16600;SDS011;34891;48.164;11.572;2022-12-05T02:20:29;14.35;;;5.95;;
16600;SDS011;34891;48.164;11.572;2022-12-05T02:30:55;18.63;;;6.68;;
16600;SDS011;34891;48.164;11.572;2022-12-05T02:36:02;15.02;;;4.97;;
16600;SDS011;34891;48.164;11.572;2022-12-05T02:41:09;10.50;;;4.00;;
16600;SDS011;34891;48.164;11.572;2022-12-05T02:46:24;23.80;;;7.70;;
16600;SDS011;34891;48.164;11.572;2022-12-05T02:51:29;12.68;;;4.40;;
16600;SDS011;34891;48.164;11.572;2022-12-05T02:56:33;9.15;;;3.33;;
16600;SDS011;34891;48.164;11.572;2022-12-05T03:01:44;16.27;;;5.22;;
16600;SDS011;34891;48.164;11.572;2022-12-05T03:06:48;22.00;;;7.32;;
16600;SDS011;34891;48.164;11.572;2022-12-05T03:11:55;20.27;;;7.47;;
16600;SDS011;34891;48.164;11.572;2022-12-05T03:17:03;21.15;;;7.32;;
16600;SDS011;34891;48.164;11.572;2022-12-05T03:22:08;23.98;;;6.60;;
16600;SDS011;34891;48.164;11.572;2022-12-05T03:27:14;19.20;;;6.93;;
16600;SDS011;34891;48.164;11.572;2022-12-05T03:32:20;23.47;;;6.80;;
16600;SDS011;34891;48.164;11.572;2022-12-05T03:37:26;18.67;;;6.38;;
16600;SDS011;34891;48.164;11.572;2022-12-05T03:42:34;19.33;;;6.80;;
16600;SDS011;34891;48.164;11.572;2022-12-05T03:47:41;20.73;;;6.47;;
16600;SDS011;34891;48.164;11.572;2022-12-05T03:52:46;15.60;;;5.90;;
16600;SDS011;34891;48.164;11.572;2022-12-05T03:58:13;14.50;;;5.90;;
16600;SDS011;34891;48.164;11.572;2022-12-05T04:03:19;19.35;;;7.05;;
16600;SDS011;34891;48.164;11.572;2022-12-05T04:08:25;11.90;;;5.20;;
16600;SDS011;34891;48.164;11.572;2022-12-05T04:13:29;8.30;;;3.27;;
16600;SDS011;34891;48.164;11.572;2022-12-05T04:18:37;12.40;;;4.03;;
16600;SDS011;34891;48.164;11.572;2022-12-05T04:23:48;19.67;;;6.87;;
16600;SDS011;34891;48.164;11.572;2022-12-05T04:29:14;14.07;;;5.07;;
16600;SDS011;34891;48.164;11.572;2022-12-05T04:34:19;9.50;;;4.13;;
16600;SDS011;34891;48.164;11.572;2022-12-05T04:39:24;12.95;;;4.28;;
16600;SDS011;34891;48.164;11.572;2022-12-05T04:44:29;11.03;;;4.23;;
16600;SDS011;34891;48.164;11.572;2022-12-05T04:49:35;9.60;;;3.65;;
16600;SDS011;34891;48.164;11.572;2022-12-05T04:54:40;19.13;;;5.95;;
16600;SDS011;34891;48.164;11.572;2022-12-05T04:59:45;18.58;;;6.13;;
16600;SDS011;34891;48.164;11.572;2022-12-05T05:04:51;22.17;;;6.80;;
16600;SDS011;34891;48.164;11.572;2022-12-05T05:09:54;21.23;;;6.82;;
16600;SDS011;34891;48.164;11.572;2022-12-05T05:15:01;19.23;;;5.75;;
16600;SDS011;34891;48.164;11.572;2022-12-05T05:20:06;20.27;;;7.10;;
16600;SDS011;34891;48.164;11.572;2022-12-05T05:25:23;18.45;;;6.47;;
16600;SDS011;34891;48.164;11.572;2022-12-05T05:30:27;19.73;;;6.07;;
16600;SDS011;34891;48.164;11.572;2022-12-05T05:35:35;19.77;;;6.85;;
16600;SDS011;34891;48.164;11.572;2022-12-05T05:40:41;20.45;;;6.13;;
16600;SDS011;34891;48.164;11.572;2022-12-05T05:45:44;21.73;;;6.32;;
16600;SDS011;34891;48.164;11.572;2022-12-05T05:50:55;19.77;;;6.80;;
16600;SDS011;34891;48.164;11.572;2022-12-05T05:56:01;26.23;;;8.25;;
16600;SDS011;34891;48.164;11.572;2022-12-05T06:01:04;24.63;;;7.83;;
16600;SDS011;34891;48.164;11.572;2022-12-05T06:06:09;4.43;;;2.10;;
16600;SDS011;34891;48.164;11.572;2022-12-05T06:11:13;24.05;;;7.03;;
16600;SDS011;34891;48.164;11.572;2022-12-05T06:16:25;22.35;;;7.80;;
16600;SDS011;34891;48.164;11.572;2022-12-05T06:21:30;26.23;;;7.97;;
16600;SDS011;34891;48.164;11.572;2022-12-05T06:26:32;8.40;;;2.72;;
16600;SDS011;34891;48.164;11.572;2022-12-05T06:31:35;18.70;;;6.38;;
16600;SDS011;34891;48.164;11.572;2022-12-05T06:36:41;17.08;;;5.35;;
16600;SDS011;34891;48.164;11.572;2022-12-05T06:41:44;21.38;;;6.20;;
16600;SDS011;34891;48.164;11.572;2022-12-05T06:46:46;18.73;;;5.68;;
16600;SDS011;34891;48.164;11.572;2022-12-05T06:51:52;26.13;;;7.50;;
16600;SDS011;34891;48.164;11.572;2022-12-05T06:56:55;16.23;;;6.40;;
16600;SDS011;34891;48.164;11.572;2022-12-05T07:01:58;4.35;;;2.92;;
16600;SDS011;34891;48.164;11.572;2022-12-05T07:07:03;19.83;;;5.78;;
16600;SDS011;34891;48.164;11.572;2022-12-05T07:12:07;21.73;;;7.05;;
16600;SDS011;34891;48.164;11.572;2022-12-05T07:17:12;25.58;;;7.13;;
16600;SDS011;34891;48.164;11.572;2022-12-05T07:22:16;23.25;;;7.18;;
16600;SDS011;34891;48.164;11.572;2022-12-05T07:27:20;17.92;;;6.68;;
16600;SDS011;34891;48.164;11.572;2022-12-05T07:32:30;23.30;;;7.40;;
16600;SDS011;34891;48.164;11.572;2022-12-05T07:37:37;18.75;;;7.80;;
16600;SDS011;34891;48.164;11.572;2022-12-05T07:42:40;21.90;;;7.13;;
16600;SDS011;34891;48.164;11.572;2022-12-05T07:47:42;19.05;;;6.22;;
16600;SDS011;34891;48.164;11.572;2022-12-05T07:52:47;18.60;;;6.10;;
16600;SDS011;34891;48.164;11.572;2022-12-05T08:02:52;19.15;;;6.35;;
16600;SDS011;34891;48.164;11.572;2022-12-05T08:07:57;17.05;;;5.18;;
16600;SDS011;34891;48.164;11.572;2022-12-05T08:12:59;24.52;;;7.28;;
16600;SDS011;34891;48.164;11.572;2022-12-05T08:18:02;19.60;;;7.03;;
16600;SDS011;34891;48.164;11.572;2022-12-05T08:23:06;14.25;;;4.90;;
16600;SDS011;34891;48.164;11.572;2022-12-05T08:28:09;18.27;;;6.38;;
16600;SDS011;34891;48.164;11.572;2022-12-05T08:33:12;15.57;;;6.28;;
16600;SDS011;34891;48.164;11.572;2022-12-05T08:38:19;12.82;;;5.18;;
16600;SDS011;34891;48.164;11.572;2022-12-05T08:43:22;18.52;;;6.72;;
16600;SDS011;34891;48.164;11.572;2022-12-05T08:48:28;20.52;;;6.88;;
16600;SDS011;34891;48.164;11.572;2022-12-05T08:53:32;17.37;;;6.13;;
16600;SDS011;34891;48.164;11.572;2022-12-05T08:58:43;20.67;;;6.57;;
16600;SDS011;34891;48.164;11.572;2022-12-05T09:03:46;16.48;;;5.80;;
16600;SDS011;34891;48.164;11.572;2022-12-05T09:08:51;20.15;;;7.15;;
16600;SDS011;34891;48.164;11.572;2022-12-05T09:13:56;16.73;;;6.18;;
16600;SDS011;34891;48.164;11.572;2022-12-05T09:19:00;20.58;;;7.32;;
16600;SDS011;34891;48.164;11.572;2022-12-05T09:24:08;17.77;;;6.75;;
16600;SDS011;34891;48.164;11.572;2022-12-05T09:29:11;12.10;;;4.68;;
16600;SDS011;34891;48.164;11.572;2022-12-05T09:34:19;18.63;;;5.70;;
16600;SDS011;34891;48.164;11.572;2022-12-05T09:39:24;21.00;;;7.32;;
16600;SDS011;34891;48.164;11.572;2022-12-05T09:44:29;18.65;;;6.53;;
16600;SDS011;34891;48.164;11.572;2022-12-05T09:49:38;20.25;;;7.03;;
16600;SDS011;34891;48.164;11.572;2022-12-05T09:54:44;19.38;;;6.97;;
16600;SDS011;34891;48.164;11.572;2022-12-05T09:59:48;19.00;;;7.43;;
16600;SDS011;34891;48.164;11.572;2022-12-05T10:04:53;19.23;;;7.55;;
16600;SDS011;34891;48.164;11.572;2022-12-05T10:10:07;17.25;;;6.80;;
16600;SDS011;34891;48.164;11.572;2022-12-05T10:15:22;19.83;;;6.30;;
16600;SDS011;34891;48.164;11.572;2022-12-05T10:20:34;18.60;;;7.22;;
16600;SDS011;34891;48.164;11.572;2022-12-05T10:25:39;17.55;;;6.25;;
16600;SDS011;34891;48.164;11.572;2022-12-05T10:30:42;18.13;;;6.65;;
16600;SDS011;34891;48.164;11.572;2022-12-05T10:35:48;14.75;;;5.78;;
16600;SDS011;34891;48.164;11.572;2022-12-05T10:40:57;9.95;;;4.63;;
16600;SDS011;34891;48.164;11.572;2022-12-05T10:46:00;18.23;;;6.65;;
16600;SDS011;34891;48.164;11.572;2022-12-05T10:51:04;21.60;;;6.87;;
16600;SDS011;34891;48.164;11.572;2022-12-05T11:01:32;16.15;;;6.50;;
16600;SDS011;34891;48.164;11.572;2022-12-05T11:06:37;17.80;;;6.70;;
16600;SDS011;34891;48.164;11.572;2022-12-05T11:11:40;17.52;;;6.65;;
16600;SDS011;34891;48.164;11.572;2022-12-05T11:16:50;13.18;;;5.20;;
16600;SDS011;34891;48.164;11.572;2022-12-05T11:21:54;13.15;;;4.55;;
16600;SDS011;34891;48.164;11.572;2022-12-05T11:26:58;13.38;;;6.05;;
16600;SDS011;34891;48.164;11.572;2022-12-05T11:32:16;13.90;;;5.78;;
16600;SDS011;34891;48.164;11.572;2022-12-05T11:37:21;6.93;;;2.72;;
16600;SDS011;34891;48.164;11.572;2022-12-05T11:42:29;8.80;;;3.72;;
16600;SDS011;34891;48.164;11.572;2022-12-05T11:47:41;12.25;;;5.68;;
16600;SDS011;34891;48.164;11.572;2022-12-05T11:52:53;9.20;;;2.83;;
16600;SDS011;34891;48.164;11.572;2022-12-05T11:58:09;7.05;;;3.03;;
16600;SDS011;34891;48.164;11.572;2022-12-05T12:08:37;11.93;;;5.28;;
16600;SDS011;34891;48.164;11.572;2022-12-05T12:13:50;13.07;;;5.07;;
16600;SDS011;34891;48.164;11.572;2022-12-05T12:24:18;11.27;;;5.10;;
16600;SDS011;34891;48.164;11.572;2022-12-05T12:29:29;6.70;;;2.03;;
16600;SDS011;34891;48.164;11.572;2022-12-05T12:34:49;8.07;;;3.30;;
16600;SDS011;34891;48.164;11.572;2022-12-05T12:39:56;11.75;;;4.70;;
16600;SDS011;34891;48.164;11.572;2022-12-05T12:45:05;5.43;;;2.72;;
16600;SDS011;34891;48.164;11.572;2022-12-05T12:50:17;6.47;;;3.13;;
16600;SDS011;34891;48.164;11.572;2022-12-05T12:55:23;11.90;;;4.47;;
16600;SDS011;34891;48.164;11.572;2022-12-05T13:00:35;7.05;;;2.53;;
16600;SDS011;34891;48.164;11.572;2022-12-05T13:05:41;11.02;;;4.57;;
16600;SDS011;34891;48.164;11.572;2022-12-05T13:10:48;8.23;;;3.63;;
16600;SDS011;34891;48.164;11.572;2022-12-05T13:15:53;6.20;;;2.85;;
16600;SDS011;34891;48.164;11.572;2022-12-05T13:20:58;4.78;;;2.38;;
16600;SDS011;34891;48.164;11.572;2022-12-05T13:26:08;6.75;;;3.00;;
16600;SDS011;34891;48.164;11.572;2022-12-05T13:31:13;5.93;;;3.17;;
16600;SDS011;34891;48.164;11.572;2022-12-05T13:36:18;7.32;;;3.03;;
16600;SDS011;34891;48.164;11.572;2022-12-05T13:41:41;4.88;;;1.60;;
16600;SDS011;34891;48.164;11.572;2022-12-05T13:47:01;3.03;;;1.25;;
16600;SDS011;34891;48.164;11.572;2022-12-05T13:52:08;7.13;;;3.15;;
16600;SDS011;34891;48.164;11.572;2022-12-05T14:02:55;3.90;;;1.80;;
16600;SDS011;34891;48.164;11.572;2022-12-05T14:13:37;4.22;;;1.88;;
16600;SDS011;34891;48.164;11.572;2022-12-05T14:18:44;6.75;;;3.17;;
16600;SDS011;34891;48.164;11.572;2022-12-05T14:23:52;4.25;;;2.30;;
16600;SDS011;34891;48.164;11.572;2022-12-05T14:29:07;3.97;;;2.13;;
16600;SDS011;34891;48.164;11.572;2022-12-05T14:34:20;5.13;;;2.50;;
16600;SDS011;34891;48.164;11.572;2022-12-05T14:44:34;3.90;;;2.00;;
16600;SDS011;34891;48.164;11.572;2022-12-05T14:49:52;6.25;;;2.65;;
16600;SDS011;34891;48.164;11.572;2022-12-05T14:55:00;5.55;;;2.63;;
16600;SDS011;34891;48.164;11.572;2022-12-05T15:00:04;5.50;;;2.00;;
16600;SDS011;34891;48.164;11.572;2022-12-05T15:05:16;3.17;;;1.67;;
16600;SDS011;34891;48.164;11.572;2022-12-05T15:10:22;7.13;;;3.20;;
16600;SDS011;34891;48.164;11.572;2022-12-05T15:15:29;6.65;;;3.03;;
16600;SDS011;34891;48.164;11.572;2022-12-05T15:20:37;7.53;;;2.78;;
16600;SDS011;34891;48.164;11.572;2022-12-05T15:25:44;6.03;;;2.60;;
16600;SDS011;34891;48.164;11.572;2022-12-05T15:30:53;6.57;;;3.07;;
16600;SDS011;34891;48.164;11.572;2022-12-05T15:35:58;6.07;;;2.47;;
16600;SDS011;34891;48.164;11.572;2022-12-05T15:41:01;3.53;;;2.00;;
16600;SDS011;34891;48.164;11.572;2022-12-05T15:46:08;5.15;;;2.50;;
16600;SDS011;34891;48.164;11.572;2022-12-05T15:51:22;5.05;;;2.33;;
16600;SDS011;34891;48.164;11.572;2022-12-05T15:56:28;6.55;;;3.08;;
16600;SDS011;34891;48.164;11.572;2022-12-05T16:01:33;3.78;;;2.00;;
16600;SDS011;34891;48.164;11.572;2022-12-05T16:06:43;5.00;;;2.45;;
16600;SDS011;34891;48.164;11.572;2022-12-05T16:11:51;5.50;;;3.28;;
16600;SDS011;34891;48.164;11.572;2022-12-05T16:16:57;6.93;;;2.53;;
16600;SDS011;34891;48.164;11.572;2022-12-05T16:22:06;7.03;;;3.28;;
16600;SDS011;34891;48.164;11.572;2022-12-05T16:27:12;7.97;;;3.58;;
16600;SDS011;34891;48.164;11.572;2022-12-05T16:32:18;5.53;;;3.03;;
16600;SDS011;34891;48.164;11.572;2022-12-05T16:37:23;4.50;;;1.83;;
16600;SDS011;34891;48.164;11.572;2022-12-05T16:42:28;5.80;;;2.65;;
16600;SDS011;34891;48.164;11.572;2022-12-05T16:53:00;2.90;;;1.25;;
16600;SDS011;34891;48.164;11.572;2022-12-05T16:58:04;7.05;;;3.08;;
16600;SDS011;34891;48.164;11.572;2022-12-05T17:03:10;8.75;;;3.35;;
16600;SDS011;34891;48.164;11.572;2022-12-05T17:08:37;8.63;;;3.47;;
16600;SDS011;34891;48.164;11.572;2022-12-05T17:13:40;3.50;;;1.63;;
16600;SDS011;34891;48.164;11.572;2022-12-05T17:18:45;3.20;;;1.73;;
16600;SDS011;34891;48.164;11.572;2022-12-05T17:23:50;6.50;;;3.50;;
16600;SDS011;34891;48.164;11.572;2022-12-05T17:34:18;3.90;;;1.98;;
16600;SDS011;34891;48.164;11.572;2022-12-05T17:39:27;4.28;;;1.77;;
16600;SDS011;34891;48.164;11.572;2022-12-05T17:44:30;5.13;;;2.45;;
16600;SDS011;34891;48.164;11.572;2022-12-05T17:49:33;1.48;;;1.10;;
16600;SDS011;34891;48.164;11.572;2022-12-05T17:54:42;4.10;;;1.83;;
16600;SDS011;34891;48.164;11.572;2022-12-05T17:59:44;6.13;;;0.98;;
16600;SDS011;34891;48.164;11.572;2022-12-05T18:04:48;6.60;;;1.65;;
16600;SDS011;34891;48.164;11.572;2022-12-05T18:09:53;5.00;;;2.33;;
16600;SDS011;34891;48.164;11.572;2022-12-05T18:14:56;1.75;;;1.35;;
16600;SDS011;34891;48.164;11.572;2022-12-05T18:20:01;3.13;;;2.00;;
16600;SDS011;34891;48.164;11.572;2022-12-05T18:30:09;3.13;;;1.55;;
16600;SDS011;34891;48.164;11.572;2022-12-05T18:35:13;24.88;;;7.22;;
16600;SDS011;34891;48.164;11.572;2022-12-05T18:40:16;14.50;;;6.10;;
16600;SDS011;34891;48.164;11.572;2022-12-05T18:45:30;5.75;;;1.95;;
16600;SDS011;34891;48.164;11.572;2022-12-05T19:01:24;3.65;;;2.10;;
16600;SDS011;34891;48.164;11.572;2022-12-05T19:06:28;7.10;;;3.60;;
16600;SDS011;34891;48.164;11.572;2022-12-05T19:11:32;1.17;;;0.85;;
16600;SDS011;34891;48.164;11.572;2022-12-05T19:16:37;4.43;;;2.05;;
16600;SDS011;34891;48.164;11.572;2022-12-05T19:21:42;3.45;;;1.52;;
16600;SDS011;34891;48.164;11.572;2022-12-05T19:26:46;7.57;;;3.40;;
16600;SDS011;34891;48.164;11.572;2022-12-05T19:31:53;2.47;;;1.17;;
16600;SDS011;34891;48.164;11.572;2022-12-05T19:36:56;2.72;;;1.65;;
16600;SDS011;34891;48.164;11.572;2022-12-05T19:42:06;0.93;;;0.77;;
16600;SDS011;34891;48.164;11.572;2022-12-05T19:47:18;6.57;;;2.78;;
16600;SDS011;34891;48.164;11.572;2022-12-05T19:52:33;2.35;;;1.35;;
16600;SDS011;34891;48.164;11.572;2022-12-05T19:57:38;5.63;;;2.55;;
16600;SDS011;34891;48.164;11.572;2022-12-05T20:02:44;35.58;;;6.20;;
16600;SDS011;34891;48.164;11.572;2022-12-05T20:07:51;5.18;;;1.80;;
16600;SDS011;34891;48.164;11.572;2022-12-05T20:12:56;3.10;;;1.55;;
16600;SDS011;34891;48.164;11.572;2022-12-05T20:18:07;19.40;;;4.50;;
16600;SDS011;34891;48.164;11.572;2022-12-05T20:23:12;2.67;;;1.33;;
16600;SDS011;34891;48.164;11.572;2022-12-05T20:28:19;40.33;;;9.15;;
16600;SDS011;34891;48.164;11.572;2022-12-05T20:33:24;9.75;;;3.65;;
16600;SDS011;34891;48.164;11.572;2022-12-05T20:38:29;38.75;;;12.02;;
16600;SDS011;34891;48.164;11.572;2022-12-05T20:43:32;10.02;;;4.13;;
16600;SDS011;34891;48.164;11.572;2022-12-05T20:48:37;5.00;;;2.70;;
16600;SDS011;34891;48.164;11.572;2022-12-05T20:53:42;8.95;;;2.75;;
16600;SDS011;34891;48.164;11.572;2022-12-05T21:03:50;5.35;;;2.88;;
16600;SDS011;34891;48.164;11.572;2022-12-05T21:08:55;2.42;;;0.93;;
16600;SDS011;34891;48.164;11.572;2022-12-05T21:13:59;3.08;;;1.80;;
16600;SDS011;34891;48.164;11.572;2022-12-05T21:19:06;3.72;;;1.95;;
16600;SDS011;34891;48.164;11.572;2022-12-05T21:24:10;1.67;;;1.45;;
16600;SDS011;34891;48.164;11.572;2022-12-05T21:29:13;3.45;;;1.52;;
16600;SDS011;34891;48.164;11.572;2022-12-05T21:34:18;1.70;;;0.82;;
16600;SDS011;34891;48.164;11.572;2022-12-05T21:39:22;4.45;;;1.98;;
16600;SDS011;34891;48.164;11.572;2022-12-05T21:44:25;3.53;;;1.73;;
16600;SDS011;34891;48.164;11.572;2022-12-05T21:49:30;2.67;;;1.35;;
16600;SDS011;34891;48.164;11.572;2022-12-05T21:59:38;6.15;;;2.90;;
16600;SDS011;34891;48.164;11.572;2022-12-05T22:04:43;9.80;;;3.22;;
16600;SDS011;34891;48.164;11.572;2022-12-05T22:09:45;6.10;;;2.50;;
16600;SDS011;34891;48.164;11.572;2022-12-05T22:14:51;2.38;;;1.45;;
16600;SDS011;34891;48.164;11.572;2022-12-05T22:19:57;4.97;;;2.05;;
16600;SDS011;34891;48.164;11.572;2022-12-05T22:25:02;2.75;;;1.48;;
16600;SDS011;34891;48.164;11.572;2022-12-05T22:30:06;2.63;;;1.70;;
16600;SDS011;34891;48.164;11.572;2022-12-05T22:35:10;9.05;;;3.00;;
16600;SDS011;34891;48.164;11.572;2022-12-05T22:40:14;2.95;;;1.45;;
16600;SDS011;34891;48.164;11.572;2022-12-05T22:45:17;6.35;;;2.42;;
16600;SDS011;34891;48.164;11.572;2022-12-05T22:50:29;1.95;;;1.23;;
16600;SDS011;34891;48.164;11.572;2022-12-05T22:55:32;4.50;;;1.77;;
16600;SDS011;34891;48.164;11.572;2022-12-05T23:00:36;4.83;;;2.33;;
16600;SDS011;34891;48.164;11.572;2022-12-05T23:05:41;6.67;;;3.17;;
16600;SDS011;34891;48.164;11.572;2022-12-05T23:10:48;7.93;;;3.08;;
16600;SDS011;34891;48.164;11.572;2022-12-05T23:15:51;1.30;;;0.90;;
16600;SDS011;34891;48.164;11.572;2022-12-05T23:20:56;8.57;;;3.60;;
16600;SDS011;34891;48.164;11.572;2022-12-05T23:26:03;5.90;;;2.67;;
16600;SDS011;34891;48.164;11.572;2022-12-05T23:31:09;6.47;;;2.20;;
16600;SDS011;34891;48.164;11.572;2022-12-05T23:36:14;5.65;;;2.55;;
16600;SDS011;34891;48.164;11.572;2022-12-05T23:46:22;8.00;;;3.47;;
16600;SDS011;34891;48.164;11.572;2022-12-05T23:51:28;2.05;;;1.15;;
16600;SDS011;34891;48.164;11.572;2022-12-05T23:56:31;9.52;;;4.20;;
